KCEY/CEY METAR and TAF weather

Enter ICAO airport designator
Station Type Date Time Source
KCEY METAR 2021/05/14 13:55 UTC NOAA

KCEY 141355Z AUTO 04004KT 10SM CLR 15/06 A3035 RMK AO1


Station Type Date Time Source
KCEY Decoded METAR 2021/05/14 13:55 UTC NOAA

Station name not available
May 14, 2021 - 09:55 AM EDT / 2021.05.14 1355 UTC
Wind: from the NE (040 degrees) at 5 MPH (4 KT):0
Visibility: 10 mile(s):0
Sky conditions: clear
Temperature: 59 F (15 C)
Dew Point: 42 F (6 C)
Relative Humidity: 54%
Pressure (altimeter): 30.35 in. Hg (1027 hPa)
ob: KCEY 141355Z AUTO 04004KT 10SM CLR 15/06 A3035 RMK AO1
cycle: 14

Station Type Date Time Source
KCEY TAF UTC NOAA

Error!

Example: see airport list